Time;durP1;ratioP1;P1;durP2;ratioP2;P2;SDS_P1;SDS_P2;PMS_P1;PMS_P2;Temp;Humidity;BMP_temperature;BMP_pressure;BME280_temperature;BME280_humidity;BME280_pressure;Samples;Min_cycle;Max_cycle;Signal;HPM_P1;HPM_P2
2022/04/12 00:01:06;;;;;;;29.82;17.48;;;;;;;-0.32;68.37;101326.27;1615263;87;21593;-76
2022/04/12 00:03:33;;;;;;;31.65;18.48;;;;;;;-0.35;68.37;101325.73;1650128;86;21132;-75
2022/04/12 00:05:58;;;;;;;;;;;;;;;-0.34;68.52;101330.88;1678294;83;21077;-75
2022/04/12 00:08:27;;;;;;;28.90;16.52;;;;;;;-0.31;68.78;101330.53;1704652;83;20367;-75
2022/04/12 00:10:53;;;;;;;;;;;;;;;-0.34;68.52;101330.01;1672765;84;21132;-75
2022/04/12 00:13:20;;;;;;;33.73;17.15;;;;;;;-0.35;68.81;101330.41;1689319;83;20199;-75
2022/04/12 00:15:51;;;;;;;35.25;17.23;;;;;;;-0.39;68.54;101332.77;1692402;83;21106;-75
2022/04/12 00:21:01;;;;;;;32.23;17.07;;;;;;;-0.43;68.58;101333.45;1664795;84;21563;-74
2022/04/12 00:23:27;;;;;;;;;;;;;;;-0.46;68.61;101337.14;1660657;85;21077;-74
2022/04/12 00:25:53;;;;;;;29.82;16.48;;;;;;;-0.47;68.87;101336.67;1657891;86;20199;-74
2022/04/12 00:28:21;;;;;;;30.80;16.70;;;;;;;-0.49;68.68;101337.02;1686416;83;21093;-74
2022/04/12 00:30:48;;;;;;;;;;;;;;;-0.52;68.68;101340.30;1697115;83;20982;-75
2022/04/12 00:33:14;;;;;;;31.00;16.67;;;;;;;-0.50;69.04;101342.91;1713081;83;20180;-75
2022/04/12 00:35:40;;;;;;;23.70;12.23;;;;;;;-0.50;68.74;101346.72;1657879;85;21096;-75
2022/04/12 00:38:22;;;;;;;29.42;17.02;;;;;;;-0.55;68.71;101344.42;1676930;82;21028;-75
2022/04/12 00:40:47;;;;;;;30.43;16.85;;;;;;;-0.59;68.71;101347.64;1628758;86;20974;-76
2022/04/12 00:43:17;;;;;;;31.37;16.75;;;;;;;-0.62;68.68;101357.68;1696106;83;21455;-75
2022/04/12 00:45:43;;;;;;;33.13;17.05;;;;;;;-0.65;68.73;101356.28;1674991;83;21036;-75
2022/04/12 00:48:10;;;;;;;37.17;17.15;;;;;;;-0.69;68.78;101353.62;1707400;83;21109;-75
2022/04/12 00:50:38;;;;;;;32.70;17.02;;;;;;;-0.71;68.84;101359.03;1714292;83;20993;-75
2022/04/12 00:53:07;;;;;;;32.05;16.85;;;;;;;-0.74;68.82;101358.91;1688771;83;21069;-75
2022/04/12 00:55:34;;;;;;;30.37;17.07;;;;;;;-0.76;68.84;101359.25;1659493;85;20905;-75
2022/04/12 00:58:07;;;;;;;33.75;16.17;;;;;;;-0.77;68.90;101360.45;1675517;85;20952;-75
2022/04/12 01:00:35;;;;;;;30.05;16.70;;;;;;;-0.77;68.99;101361.31;1680755;83;20950;-75
2022/04/12 01:03:02;;;;;;;30.05;16.27;;;;;;;-0.76;69.02;101360.91;1686984;83;20898;-75
2022/04/12 01:05:28;;;;;;;33.80;16.62;;;;;;;-0.76;69.05;101356.70;1687607;83;20896;-75
2022/04/12 01:07:55;;;;;;;33.42;16.80;;;;;;;-0.75;69.13;101360.11;1682174;85;20880;-75
2022/04/12 01:10:26;;;;;;;37.13;17.07;;;;;;;-0.73;69.22;101354.30;1715684;83;20938;-75
2022/04/12 01:12:53;;;;;;;34.27;17.23;;;;;;;-0.73;69.21;101354.70;1715583;82;20942;-74
2022/04/12 01:15:24;;;;;;;34.67;17.15;;;;;;;-0.73;69.16;101360.64;1691666;83;21401;-74
2022/04/12 01:17:51;;;;;;;32.80;16.40;;;;;;;-0.73;69.17;101354.30;1680411;85;20925;-74
2022/04/12 01:20:24;;;;;;;29.40;16.00;;;;;;;-0.75;69.10;101357.58;1686089;84;21645;-74
2022/04/12 01:23:08;;;;;;;36.35;16.77;;;;;;;-0.80;69.08;101362.86;1697497;83;20996;-74
2022/04/12 01:25:38;;;;;;;32.03;17.60;;;;;;;-0.82;69.10;101360.26;1694198;82;21473;-74
2022/04/12 01:28:06;;;;;;;30.50;15.80;;;;;;;-0.81;69.20;101358.59;1715271;83;21294;-74
2022/04/12 01:30:33;;;;;;;32.05;16.70;;;;;;;-0.85;69.08;101361.40;1714206;83;21016;-74
2022/04/12 01:32:59;;;;;;;34.95;16.57;;;;;;;-0.88;69.12;101364.20;1673140;83;20997;-74
2022/04/12 01:35:25;;;;;;;28.67;16.02;;;;;;;-0.93;69.15;101361.88;1658298;85;21068;-74
2022/04/12 01:37:51;;;;;;;28.67;15.60;;;;;;;-0.95;69.18;101358.00;1704723;83;21124;-74
2022/04/12 01:40:17;;;;;;;29.27;15.68;;;;;;;-0.95;69.25;101362.22;1714940;83;22149;-74
2022/04/12 01:42:43;;;;;;;31.90;15.85;;;;;;;-0.95;69.27;101363.48;1679311;83;21498;-74
2022/04/12 01:45:16;;;;;;;28.65;15.30;;;;;;;-0.97;69.26;101362.55;1658085;85;21669;-74
2022/04/12 01:47:42;;;;;;;30.45;15.68;;;;;;;-1.00;69.22;101364.55;1682773;85;21609;-74
2022/04/12 01:50:09;;;;;;;28.30;13.85;;;;;;;-1.01;69.30;101364.95;1674695;85;21457;-74
2022/04/12 01:52:36;;;;;;;29.87;15.60;;;;;;;-1.03;69.28;101364.42;1657703;85;22188;-74
2022/04/12 01:55:04;;;;;;;27.32;15.13;;;;;;;-1.06;69.33;101362.66;1629600;86;21620;-74
2022/04/12 01:57:30;;;;;;;26.40;15.28;;;;;;;-1.06;69.48;101366.87;1658091;86;22473;-74
2022/04/12 01:59:59;;;;;;;30.10;15.80;;;;;;;-1.08;69.39;101368.47;1674451;85;21504;-74
2022/04/12 02:02:25;;;;;;;29.07;15.10;;;;;;;-1.12;69.37;101364.06;1658361;83;21077;-74
2022/04/12 02:04:52;;;;;;;29.42;14.53;;;;;;;-1.15;69.42;101365.20;1638654;86;22060;-74
2022/04/12 02:07:18;;;;;;;27.52;15.63;;;;;;;-1.16;69.46;101368.54;1683995;84;22120;-74
2022/04/12 02:09:44;;;;;;;25.27;15.23;;;;;;;-1.16;69.42;101364.33;1661137;84;22271;-74
2022/04/12 02:12:11;;;;;;;31.27;16.23;;;;;;;-1.17;69.54;101365.13;1675955;83;20942;-74
2022/04/12 02:14:41;;;;;;;28.80;15.13;;;;;;;-1.15;69.69;101365.20;1693766;84;21019;-74
2022/04/12 02:17:07;;;;;;;29.48;15.98;;;;;;;-1.15;69.54;101363.93;1653910;83;21522;-74
2022/04/12 02:19:33;;;;;;;28.92;15.20;;;;;;;-1.15;69.70;101361.39;1638949;86;21546;-74
2022/04/12 02:22:00;;;;;;;31.23;16.80;;;;;;;-1.16;69.60;101359.66;1640030;86;21526;-74
2022/04/12 02:24:26;;;;;;;31.52;16.15;;;;;;;-1.15;69.74;101370.27;1647143;86;22008;-74
2022/04/12 02:26:58;;;;;;;30.30;16.17;;;;;;;-1.16;69.85;101363.06;1664858;84;20998;-74
2022/04/12 02:29:24;;;;;;;33.00;15.80;;;;;;;-1.15;69.89;101363.93;1665279;84;21054;-74
2022/04/12 02:31:50;;;;;;;27.27;14.63;;;;;;;-1.14;69.87;101363.13;1664929;84;20934;-73
2022/04/12 02:34:17;;;;;;;27.70;15.55;;;;;;;-1.14;69.82;101365.66;1643699;86;21653;-74
2022/04/12 02:36:43;;;;;;;29.77;15.65;;;;;;;-1.18;69.77;101370.14;1638347;86;21129;-74
2022/04/12 02:39:09;;;;;;;29.82;14.98;;;;;;;-1.21;69.84;101364.53;1638310;86;22195;-74
2022/04/12 02:41:36;;;;;;;30.00;15.58;;;;;;;-1.21;69.90;101363.27;1638272;86;20966;-74
2022/04/12 02:44:05;;;;;;;29.35;15.35;;;;;;;-1.22;69.78;101365.73;1638225;86;21518;-74
2022/04/12 02:46:31;;;;;;;27.05;14.13;;;;;;;-1.25;69.70;101369.01;1657287;84;21564;-74
2022/04/12 02:48:57;;;;;;;29.87;15.95;;;;;;;-1.30;69.65;101370.88;1665356;86;21018;-74
2022/04/12 02:51:23;;;;;;;33.50;18.00;;;;;;;-1.32;69.85;101374.61;1665186;85;22228;-74
2022/04/12 02:53:50;;;;;;;30.05;17.02;;;;;;;-1.35;69.90;101380.81;1655359;86;21650;-74
2022/04/12 02:56:16;;;;;;;;;;;;;;;-1.38;69.94;101376.48;1665393;86;21455;-74
2022/04/12 02:58:41;;;;;;;;;;;;;;;-1.41;70.13;101383.95;1630772;86;20194;-74
2022/04/12 03:01:07;;;;;;;34.00;16.30;;;;;;;-1.46;70.19;101384.14;1614120;85;20756;-74
2022/04/12 03:03:34;;;;;;;32.40;15.00;;;;;;;-1.48;70.06;101385.74;1613152;87;21077;-74
2022/04/12 03:06:00;;;;;;;;;;;;;;;-1.48;70.01;101384.47;1628380;86;21018;-74
2022/04/12 03:08:26;;;;;;;;;;;;;;;-1.47;70.45;101386.61;1680531;85;21550;-74
2022/04/12 03:10:52;;;;;;;32.42;14.65;;;;;;;-1.47;70.41;101390.02;1719467;83;20203;-74
2022/04/12 03:13:18;;;;;;;35.85;17.17;;;;;;;-1.48;70.23;101392.08;1709316;83;21165;-75
2022/04/12 03:15:44;;;;;;;31.95;16.15;;;;;;;-1.47;70.30;101395.48;1676052;83;21029;-75
2022/04/12 03:18:11;;;;;;;30.27;16.37;;;;;;;-1.45;70.19;101393.89;1667769;84;20897;-75
2022/04/12 03:20:37;;;;;;;;;;;;;;;-1.45;70.24;101385.02;1693860;84;20985;-75
2022/04/12 03:23:04;;;;;;;30.55;16.25;;;;;;;-1.45;70.46;101386.28;1688011;84;20289;-75
2022/04/12 03:25:30;;;;;;;30.77;15.95;;;;;;;-1.44;70.14;101381.67;1657863;86;21545;-75
2022/04/12 03:27:57;;;;;;;30.05;15.85;;;;;;;-1.46;70.16;101386.67;1691780;83;21072;-75
2022/04/12 03:30:23;;;;;;;33.90;15.93;;;;;;;-1.46;70.20;101380.73;1667798;83;21061;-75
2022/04/12 03:32:48;;;;;;;31.77;16.42;;;;;;;-1.46;70.18;101375.27;1676400;83;20909;-75
2022/04/12 03:35:14;;;;;;;29.05;15.98;;;;;;;-1.48;70.21;101378.53;1690347;83;21017;-75
2022/04/12 03:37:45;;;;;;;32.00;16.50;;;;;;;-1.48;70.23;101387.01;1720742;83;21044;-76
2022/04/12 03:40:12;;;;;;;31.57;16.15;;;;;;;-1.49;70.13;101384.41;1703025;82;21068;-76
2022/04/12 03:42:38;;;;;;;29.27;15.65;;;;;;;-1.55;70.14;101379.06;1664556;84;21001;-76
2022/04/12 03:45:10;;;;;;;27.73;15.18;;;;;;;-1.59;70.06;101386.95;1663729;85;21120;-76
2022/04/12 03:47:38;;;;;;;30.80;15.28;;;;;;;-1.58;70.13;101384.02;1651312;85;20996;-76
2022/04/12 03:50:06;;;;;;;29.90;15.00;;;;;;;-1.62;70.07;101376.67;1694595;83;21487;-76
2022/04/12 03:52:32;;;;;;;33.88;15.10;;;;;;;-1.64;70.06;101376.14;1693597;83;21579;-77
2022/04/12 03:54:59;;;;;;;25.32;14.05;;;;;;;-1.69;70.07;101375.93;1683026;83;21063;-77
2022/04/12 03:57:26;;;;;;;27.48;15.38;;;;;;;-1.71;70.09;101382.59;1705252;83;21057;-76
2022/04/12 03:59:52;;;;;;;27.07;15.18;;;;;;;-1.75;70.09;101387.92;1693235;83;21753;-76
2022/04/12 04:02:17;;;;;;;35.33;16.57;;;;;;;-1.77;70.18;101386.12;1689121;83;20914;-76
2022/04/12 04:04:44;;;;;;;24.30;14.70;;;;;;;-1.76;70.24;101389.13;1654757;84;21041;-76
2022/04/12 04:07:10;;;;;;;32.33;16.25;;;;;;;-1.75;70.30;101391.73;1649025;84;20930;-78
2022/04/12 04:09:36;;;;;;;33.15;15.98;;;;;;;-1.72;70.27;101389.73;1688131;83;20949;-76
2022/04/12 04:12:05;;;;;;;33.53;17.12;;;;;;;-1.75;70.27;101396.80;1684355;83;21116;-80
2022/04/12 04:14:33;;;;;;;30.20;16.45;;;;;;;-1.76;70.27;101396.33;1685461;83;21429;-79
2022/04/12 04:17:01;;;;;;;35.13;16.48;;;;;;;-1.75;70.34;101401.00;1687670;83;21040;-79
2022/04/12 04:19:27;;;;;;;29.92;15.30;;;;;;;-1.73;70.42;101401.53;1686295;84;21140;-79
2022/04/12 04:21:55;;;;;;;28.35;15.23;;;;;;;-1.71;70.31;101402.87;1686838;83;20976;-79
2022/04/12 04:24:21;;;;;;;30.25;15.55;;;;;;;-1.74;70.30;101401.07;1654356;83;21117;-79
2022/04/12 04:26:48;;;;;;;34.00;15.50;;;;;;;-1.74;70.34;101402.73;1684735;83;21098;-79
2022/04/12 04:29:18;;;;;;;31.85;15.28;;;;;;;-1.70;70.45;101414.75;1692782;83;21045;-80
2022/04/12 04:31:44;;;;;;;27.27;15.13;;;;;;;-1.69;70.48;101405.95;1708993;82;21049;-79
2022/04/12 04:34:10;;;;;;;34.25;15.90;;;;;;;-1.65;70.50;101412.03;1678153;84;22630;-79
2022/04/12 04:36:36;;;;;;;30.52;15.10;;;;;;;-1.61;70.57;101412.64;1678316;83;21013;-80
2022/04/12 04:39:02;;;;;;;32.48;17.12;;;;;;;-1.46;70.76;101408.64;1687816;83;21132;-80
2022/04/12 04:41:28;;;;;;;28.00;15.88;;;;;;;-1.46;70.76;101408.64;1655691;83;21039;-80
2022/04/12 04:43:55;;;;;;;33.78;15.65;;;;;;;-1.38;70.78;101412.39;1662093;84;21598;-81
2022/04/12 04:46:21;;;;;;;31.62;16.35;;;;;;;-1.31;70.71;101411.00;1656683;84;21133;-81
2022/04/12 04:48:47;;;;;;;35.25;15.95;;;;;;;-1.25;70.74;101413.80;1686441;83;21642;-79
2022/04/12 04:51:13;;;;;;;35.10;16.50;;;;;;;-1.21;70.73;101415.68;1693095;83;21069;-79
2022/04/12 04:53:39;;;;;;;34.92;16.48;;;;;;;-1.15;70.80;101421.89;1688514;83;21021;-79
2022/04/12 04:56:07;;;;;;;32.90;16.25;;;;;;;-1.10;70.75;101423.36;1677413;85;21051;-79
2022/04/12 04:58:46;;;;;;;37.30;18.00;;;;;;;-1.06;70.82;101422.30;1689510;83;21084;-79
2022/04/12 05:01:12;;;;;;;38.02;17.95;;;;;;;-0.98;70.95;101421.33;1677291;83;20979;-80
2022/04/12 05:03:38;;;;;;;34.83;18.32;;;;;;;-0.84;71.09;101423.20;1683388;83;20925;-80
2022/04/12 05:06:04;;;;;;;35.48;18.12;;;;;;;-0.71;71.16;101433.08;1721110;83;21222;-80
2022/04/12 05:08:30;;;;;;;33.00;16.90;;;;;;;-0.51;71.29;101433.89;1681469;85;21099;-80
2022/04/12 05:10:56;;;;;;;38.15;19.40;;;;;;;-0.22;71.41;101439.77;1665290;85;21660;-80
2022/04/12 05:13:22;;;;;;;34.63;18.52;;;;;;;0.06;71.52;101433.22;1652631;85;28288;-80
2022/04/12 05:15:48;;;;;;;663.20;228.00;;;;;;;0.35;71.59;101440.31;1666115;84;21079;-80
2022/04/12 05:18:15;;;;;;;49.83;40.67;;;;;;;0.71;71.72;101448.45;1668164;85;21082;-79
2022/04/12 05:20:43;;;;;;;27.65;17.57;;;;;;;1.07;71.71;101447.63;1671720;85;20955;-79
2022/04/12 05:23:09;;;;;;;28.20;17.90;;;;;;;1.46;71.67;101451.98;1699944;81;124261;-79
2022/04/12 05:25:35;;;;;;;29.72;17.62;;;;;;;1.87;71.79;101454.61;1712461;82;21065;-79
2022/04/12 05:28:02;;;;;;;1170.75;146.65;;;;;;;2.27;71.76;101448.19;1708752;82;21095;-79
2022/04/12 05:30:29;;;;;;;58.08;28.55;;;;;;;2.67;71.83;101448.96;1721749;82;21072;-79
2022/04/12 05:32:55;;;;;;;27.20;15.43;;;;;;;3.15;71.93;101453.70;1727952;82;20972;-79
2022/04/12 05:35:21;;;;;;;26.05;15.85;;;;;;;3.66;71.96;101458.91;1720538;82;21133;-80
2022/04/12 05:37:52;;;;;;;125.10;52.88;;;;;;;4.07;71.90;101461.63;1711570;82;21039;-83
2022/04/12 05:40:20;;;;;;;25.05;15.70;;;;;;;4.46;71.98;101465.91;1707764;82;21809;-80
2022/04/12 05:42:47;;;;;;;29.77;16.67;;;;;;;4.84;71.95;101466.72;1710790;82;20912;-80
2022/04/12 05:45:15;;;;;;;28.32;16.77;;;;;;;5.11;71.81;101472.41;1699726;82;21437;-80
2022/04/12 05:47:51;;;;;;;28.20;18.02;;;;;;;5.31;71.83;101477.48;1719514;80;20920;-79
2022/04/12 05:50:27;;;;;;;28.02;17.00;;;;;;;5.56;71.82;101477.95;1688880;82;20925;-78
2022/04/12 05:52:54;;;;;;;28.23;18.15;;;;;;;5.84;71.75;101478.86;1724755;82;20933;-78
2022/04/12 05:55:22;;;;;;;;;;;;;;;6.08;71.73;101472.02;1701302;82;21599;-78
2022/04/12 05:57:59;;;;;;;32.40;19.20;;;;;;;6.34;71.51;101475.38;1703613;82;20226;-78
2022/04/12 06:00:31;;;;;;;44.30;29.75;;;;;;;6.54;71.53;101473.55;1700826;81;21582;-78
2022/04/12 06:02:59;;;;;;;36.00;21.27;;;;;;;6.77;71.58;101470.41;1705527;82;21412;-78
2022/04/12 06:05:29;;;;;;;33.13;19.37;;;;;;;7.01;71.50;101477.16;1705798;82;20928;-78
2022/04/12 06:07:55;;;;;;;1999.90;999.90;;;;;;;7.21;71.44;101480.83;1676600;84;21116;-79
2022/04/12 06:10:22;;;;;;;30.75;17.77;;;;;;;7.44;71.46;101490.06;1663597;84;21060;-78
2022/04/12 06:12:50;;;;;;;34.58;18.40;;;;;;;7.66;71.33;101486.43;1675287;84;20915;-78
2022/04/12 06:15:17;;;;;;;27.20;16.52;;;;;;;7.84;71.37;101491.73;1669335;84;21080;-78
2022/04/12 06:17:43;;;;;;;27.98;15.95;;;;;;;8.05;71.28;101494.49;1666576;83;22574;-78
2022/04/12 06:20:16;;;;;;;25.23;15.33;;;;;;;8.24;71.31;101492.93;1706804;82;20964;-79
2022/04/12 06:22:42;;;;;;;26.80;14.95;;;;;;;8.48;71.30;101494.40;1702064;82;21402;-79
2022/04/12 06:25:11;;;;;;;22.10;13.30;;;;;;;8.70;71.19;101495.40;1703115;82;20916;-80
2022/04/12 06:27:50;;;;;;;22.00;14.07;;;;;;;8.88;71.17;101495.47;1657250;84;21446;-81
2022/04/12 06:30:16;;;;;;;27.30;14.30;;;;;;;9.10;71.17;101494.28;1669593;84;20973;-80
2022/04/12 06:32:44;;;;;;;18.25;12.85;;;;;;;9.27;71.16;101499.08;1674029;84;20913;-81
2022/04/12 06:35:12;;;;;;;23.95;13.28;;;;;;;9.52;71.16;101499.56;1672191;84;21143;-81
2022/04/12 06:37:42;;;;;;;19.32;13.10;;;;;;;9.74;71.11;101497.03;1665710;84;21773;-81
2022/04/12 06:40:13;;;;;;;24.00;13.62;;;;;;;9.92;71.03;101506.06;1657502;84;21008;-81
2022/04/12 06:42:40;;;;;;;17.73;12.60;;;;;;;10.07;70.95;101503.92;1659770;84;21008;-80
2022/04/12 06:45:11;;;;;;;17.60;11.95;;;;;;;10.18;70.91;101504.36;1661039;84;21096;-79
2022/04/12 06:47:37;;;;;;;17.25;11.50;;;;;;;10.32;70.89;101504.39;1660447;84;21064;-81
2022/04/12 06:50:05;;;;;;;14.90;11.10;;;;;;;10.50;70.84;101505.63;1690057;84;21057;-81
2022/04/12 06:52:32;;;;;;;17.12;11.20;;;;;;;10.66;70.81;101504.31;1685641;84;21479;-80
2022/04/12 06:54:59;;;;;;;15.95;11.33;;;;;;;10.85;70.82;101504.70;1657398;84;21346;-81
2022/04/12 06:57:25;;;;;;;15.70;11.40;;;;;;;11.02;70.72;101506.77;1665556;84;21048;-82
2022/04/12 06:59:54;;;;;;;13.60;10.80;;;;;;;11.23;70.80;101503.24;1684453;84;21062;-82
2022/04/12 07:02:20;;;;;;;16.57;10.55;;;;;;;11.42;70.65;101506.61;1669253;84;21512;-83
2022/04/12 07:04:46;;;;;;;13.43;9.60;;;;;;;11.59;70.54;101508.20;1635875;85;21051;-82
2022/04/12 07:07:13;;;;;;;17.45;10.75;;;;;;;11.81;70.44;101512.86;1628317;85;21100;-81
2022/04/12 07:09:39;;;;;;;17.10;9.43;;;;;;;12.01;70.26;101509.23;1634640;85;21367;-80
2022/04/12 07:12:06;;;;;;;13.57;9.20;;;;;;;12.18;70.24;101510.83;1643899;85;21067;-80
2022/04/12 07:14:33;;;;;;;15.98;9.73;;;;;;;12.34;70.10;101511.56;1636924;85;21087;-81
2022/04/12 07:17:03;;;;;;;13.30;9.37;;;;;;;12.54;70.21;101517.83;1645367;85;21110;-80
2022/04/12 07:19:27;;;;;;;11.55;8.30;;;;;;;12.93;70.42;101520.02;1639920;85;21482;-80
2022/04/12 07:21:54;;;;;;;13.03;9.80;;;;;;;13.44;70.64;101520.27;1638939;85;21083;-80
2022/04/12 07:24:20;;;;;;;11.70;8.90;;;;;;;14.04;70.16;101509.81;1630077;85;21151;-81
2022/04/12 07:26:46;;;;;;;9.40;8.10;;;;;;;14.68;69.92;101511.75;1662277;85;21069;-81
2022/04/12 07:29:13;;;;;;;9.40;7.17;;;;;;;15.15;69.05;101510.80;1675607;85;20922;-81
2022/04/12 07:31:39;;;;;;;12.43;7.90;;;;;;;15.26;68.28;101511.89;1653461;85;20949;-81
2022/04/12 07:34:05;;;;;;;9.23;7.33;;;;;;;14.98;68.08;101508.57;1648421;85;21770;-81
2022/04/12 07:36:31;;;;;;;10.80;7.93;;;;;;;14.74;68.17;101511.20;1665408;85;20937;-81
2022/04/12 07:38:57;;;;;;;7.97;6.15;;;;;;;14.53;68.04;101506.42;1649250;85;21139;-81
2022/04/12 07:41:23;;;;;;;11.90;6.93;;;;;;;14.36;68.28;101510.58;1641956;85;20963;-81
2022/04/12 07:43:49;;;;;;;11.90;8.10;;;;;;;13.89;68.24;101495.78;1643296;85;21069;-81
2022/04/12 07:46:16;;;;;;;8.80;6.97;;;;;;;13.89;68.24;101495.78;1653648;85;21064;-81
2022/04/12 07:48:43;;;;;;;7.92;6.50;;;;;;;14.07;68.05;101516.70;1654180;85;21088;-81
2022/04/12 07:51:10;;;;;;;9.93;6.05;;;;;;;14.11;67.83;101516.62;1657551;85;21422;-80
2022/04/12 07:53:37;;;;;;;8.75;6.60;;;;;;;14.07;67.44;101510.20;1642428;85;21063;-81
2022/04/12 07:56:03;;;;;;;;;;;;;;;13.98;67.30;101516.88;1649935;85;20968;-77
2022/04/12 07:58:35;;;;;;;9.53;6.17;;;;;;;13.96;66.33;101523.41;1655811;85;20189;-77
2022/04/12 08:01:01;;;;;;;8.73;6.30;;;;;;;13.90;66.93;101528.70;1641435;85;21475;-77
2022/04/12 08:03:27;;;;;;;8.85;5.87;;;;;;;13.88;67.11;101529.16;1644621;83;21080;-77
2022/04/12 08:05:53;;;;;;;7.63;5.60;;;;;;;13.87;67.07;101533.50;1652477;85;21716;-77
2022/04/12 08:08:20;;;;;;;9.40;5.70;;;;;;;13.76;67.00;101531.49;1643976;85;21539;-77
2022/04/12 08:10:46;;;;;;;6.65;5.40;;;;;;;13.70;66.75;101532.88;1652383;85;21544;-77
2022/04/12 08:13:13;;;;;;;6.28;4.87;;;;;;;13.64;66.67;101539.46;1663851;85;21637;-77
2022/04/12 08:15:39;;;;;;;6.72;4.78;;;;;;;13.48;66.33;101536.68;1654378;85;21137;-77
2022/04/12 08:18:06;;;;;;;7.53;4.03;;;;;;;13.39;66.35;101527.27;1636166;86;21017;-77
2022/04/12 08:20:33;;;;;;;6.30;4.30;;;;;;;13.31;66.05;101534.73;1676827;85;21421;-77
2022/04/12 08:22:59;;;;;;;6.20;3.98;;;;;;;13.28;65.88;101527.84;1662881;85;20924;-77
2022/04/12 08:25:26;;;;;;;8.27;4.60;;;;;;;13.57;65.88;101528.73;1656864;85;21043;-79
2022/04/12 08:27:52;;;;;;;7.08;4.58;;;;;;;14.12;65.09;101527.89;1669233;85;21096;-78
2022/04/12 08:30:19;;;;;;;6.72;4.40;;;;;;;14.66;64.56;101527.84;1678320;85;28093;-78
2022/04/12 08:32:45;;;;;;;9.30;5.60;;;;;;;14.99;64.11;101523.75;1657104;85;21416;-78
2022/04/12 08:35:12;;;;;;;9.33;4.23;;;;;;;15.08;63.69;101521.80;1642357;85;21135;-78
2022/04/12 08:37:38;;;;;;;6.03;4.08;;;;;;;14.90;63.34;101527.39;1666862;85;21383;-78
2022/04/12 08:40:06;;;;;;;9.40;4.40;;;;;;;14.69;63.44;101527.80;1657990;85;20920;-79
2022/04/12 08:42:32;;;;;;;6.47;4.50;;;;;;;14.48;63.51;101531.66;1654266;85;20932;-79
2022/04/12 08:45:03;;;;;;;6.45;4.03;;;;;;;14.24;63.25;101532.45;1676627;85;20937;-79
2022/04/12 08:47:34;;;;;;;7.37;3.60;;;;;;;13.99;63.37;101538.95;1662169;85;20972;-79
2022/04/12 08:50:02;;;;;;;7.58;3.52;;;;;;;13.91;63.50;101540.81;1646193;85;20975;-79
2022/04/12 08:52:32;;;;;;;4.12;3.12;;;;;;;13.82;63.27;101540.95;1654002;85;20972;-78
2022/04/12 08:54:59;;;;;;;6.28;2.92;;;;;;;13.65;63.27;101546.38;1656487;85;20989;-77
2022/04/12 08:57:25;;;;;;;7.50;3.08;;;;;;;13.58;63.28;101549.94;1657812;85;21595;-78
2022/04/12 08:59:52;;;;;;;5.17;2.95;;;;;;;13.57;63.17;101551.68;1633255;85;40496;-79
2022/04/12 09:02:18;;;;;;;4.25;3.08;;;;;;;13.52;62.90;101545.69;1667160;85;20916;-79
2022/04/12 09:04:44;;;;;;;4.20;2.80;;;;;;;13.40;62.70;101549.77;1669009;83;20881;-78
2022/04/12 09:07:11;;;;;;;87.03;52.17;;;;;;;13.24;62.34;101554.73;1712608;82;21063;-78
2022/04/12 09:09:39;;;;;;;;;;;;;;;13.04;62.26;101550.16;1730627;82;21079;-78
2022/04/12 09:12:13;;;;;;;7.75;2.90;;;;;;;12.89;61.65;101550.78;1719982;83;20094;-78
2022/04/12 09:14:57;;;;;;;5.10;3.20;;;;;;;12.71;61.96;101551.41;1707980;82;20897;-78
2022/04/12 09:17:35;;;;;;;4.25;2.40;;;;;;;12.57;61.77;101548.94;1705974;82;20936;-78
2022/04/12 09:20:05;;;;;;;3.50;2.30;;;;;;;12.37;61.52;101546.98;1708794;82;20932;-80
2022/04/12 09:22:34;;;;;;;5.97;2.67;;;;;;;12.31;61.59;101545.30;1682506;82;21508;-81
2022/04/12 09:25:05;;;;;;;6.37;2.87;;;;;;;12.25;61.26;101542.31;1720742;81;20949;-81
2022/04/12 09:27:34;;;;;;;6.15;2.95;;;;;;;12.11;61.00;101551.07;1691367;82;20908;-80
2022/04/12 09:30:12;;;;;;;4.25;2.27;;;;;;;11.88;60.73;101546.08;1728586;82;20951;-77
2022/04/12 09:32:48;;;;;;;2.90;1.85;;;;;;;11.73;60.79;101552.17;1706105;82;20992;-78
2022/04/12 09:35:15;;;;;;;2.92;2.10;;;;;;;11.68;60.62;101547.88;1721397;82;20901;-78
2022/04/12 09:37:44;;;;;;;4.25;2.75;;;;;;;11.69;60.46;101544.42;1715584;82;20868;-78
2022/04/12 09:40:16;;;;;;;6.25;3.30;;;;;;;11.68;60.29;101543.56;1704212;82;20916;-77
2022/04/12 09:42:52;;;;;;;4.58;2.22;;;;;;;11.65;60.17;101540.99;1713181;82;21469;-77
2022/04/12 09:45:24;;;;;;;4.87;2.37;;;;;;;11.68;60.04;101539.68;1727882;82;20988;-77
2022/04/12 09:48:02;;;;;;;4.33;2.35;;;;;;;11.70;59.87;101539.67;1674158;83;21587;-77
2022/04/12 09:50:31;;;;;;;6.15;2.20;;;;;;;11.70;59.69;101535.78;1716353;82;20972;-76
2022/04/12 09:53:06;;;;;;;2.35;2.12;;;;;;;11.66;59.49;101536.23;1728098;82;21351;-76
2022/04/12 09:55:45;;;;;;;3.35;2.33;;;;;;;11.64;59.38;101539.27;1699610;82;21031;-77
2022/04/12 09:58:15;;;;;;;5.75;2.33;;;;;;;11.58;59.21;101531.53;1720946;82;21080;-77
2022/04/12 10:00:43;;;;;;;2.37;2.12;;;;;;;11.53;59.19;101525.52;1728338;82;21416;-77
2022/04/12 10:03:12;;;;;;;3.17;2.65;;;;;;;11.53;58.98;101525.52;1720341;82;21042;-77
2022/04/12 10:05:38;;;;;;;5.60;2.30;;;;;;;11.45;58.89;101520.38;1700178;82;21007;-76
2022/04/12 10:08:09;;;;;;;3.95;2.62;;;;;;;11.49;58.92;101519.92;1711290;82;20921;-75
2022/04/12 10:10:36;;;;;;;6.10;2.05;;;;;;;11.46;58.55;101517.34;1698809;82;21094;-77
2022/04/12 10:13:02;;;;;;;;;;;;;;;11.37;58.46;101510.52;1730319;82;21515;-76
2022/04/12 10:15:29;;;;;;;2.67;1.85;;;;;;;11.42;57.76;101518.27;1718461;82;20242;-77
2022/04/12 10:18:04;;;;;;;4.92;2.72;;;;;;;11.48;58.43;101521.66;1677241;84;21682;-77
2022/04/12 10:20:30;;;;;;;4.43;2.50;;;;;;;11.53;58.21;101519.90;1665236;85;21631;-77
2022/04/12 10:22:58;;;;;;;3.50;1.92;;;;;;;11.54;58.04;101516.88;1687417;84;21036;-77
2022/04/12 10:25:25;;;;;;;3.80;2.30;;;;;;;11.44;57.71;101512.61;1653034;84;20981;-77
2022/04/12 10:27:53;;;;;;;;;;;;;;;11.37;57.84;101513.11;1730479;80;126013;-77
2022/04/12 10:30:26;;;;;;;3.58;2.45;;;;;;;11.40;56.16;101497.98;1704822;82;20567;-77
2022/04/12 10:33:17;;;;;;;2.47;2.00;;;;;;;11.26;57.13;101502.80;1705657;82;20936;-77
2022/04/12 10:35:54;;;;;;;6.12;2.40;;;;;;;11.23;57.26;101492.45;1708784;82;21443;-77
2022/04/12 10:38:23;;;;;;;4.60;2.00;;;;;;;11.27;57.35;101495.89;1697918;82;21092;-77
2022/04/12 10:40:56;;;;;;;5.87;2.33;;;;;;;11.38;57.31;101492.81;1712508;82;21425;-77
2022/04/12 10:43:36;;;;;;;3.27;2.17;;;;;;;11.48;57.15;101494.45;1720540;82;21508;-76
2022/04/12 10:46:08;;;;;;;3.17;2.83;;;;;;;11.55;57.04;101489.67;1703444;82;20914;-75
2022/04/12 10:48:34;;;;;;;4.67;2.62;;;;;;;11.65;56.98;101490.47;1694938;82;20932;-76
2022/04/12 10:51:03;;;;;;;5.58;2.75;;;;;;;11.74;57.02;101491.71;1702805;82;21503;-76
2022/04/12 10:53:44;;;;;;;5.83;3.00;;;;;;;11.83;56.96;101493.41;1700227;82;21795;-76
2022/04/12 10:56:17;;;;;;;7.33;2.33;;;;;;;11.87;56.75;101497.27;1714759;82;20929;-76
2022/04/12 10:58:44;;;;;;;3.85;2.33;;;;;;;11.90;56.75;101488.17;1727901;82;21542;-76
2022/04/12 11:01:29;;;;;;;7.05;2.35;;;;;;;11.92;56.64;101485.14;1708379;82;21023;-76
2022/04/12 11:04:05;;;;;;;3.95;2.62;;;;;;;11.90;56.50;101488.61;1713360;82;21119;-76
2022/04/12 11:06:33;;;;;;;4.85;2.80;;;;;;;11.86;56.44;101475.25;1690400;82;20983;-76
2022/04/12 11:09:16;;;;;;;4.70;3.30;;;;;;;11.86;56.04;101481.30;1698715;83;21864;-75
2022/04/12 11:11:45;;;;;;;4.85;2.77;;;;;;;11.87;56.27;101476.53;1639143;86;21953;-76
2022/04/12 11:14:32;;;;;;;5.47;3.00;;;;;;;11.86;56.25;101476.55;1706681;82;21524;-76
2022/04/12 11:17:04;;;;;;;4.60;2.65;;;;;;;11.89;56.19;101476.52;1698887;83;21111;-76
2022/04/12 11:19:50;;;;;;;2.80;2.37;;;;;;;11.95;56.07;101470.00;1674293;83;21513;-76
2022/04/12 11:22:19;;;;;;;3.62;2.17;;;;;;;11.93;55.90;101466.12;1678588;83;21468;-76
2022/04/12 11:25:14;;;;;;;4.87;2.77;;;;;;;11.95;55.88;101475.62;1686012;83;21432;-76
2022/04/12 11:27:41;;;;;;;3.87;2.40;;;;;;;11.95;55.79;101466.11;1687443;83;21610;-76